Time;durP1;ratioP1;P1;durP2;ratioP2;P2;SDS_P1;SDS_P2;PMS_P1;PMS_P2;Temp;Humidity;BMP_temperature;BMP_pressure;BME280_temperature;BME280_humidity;BME280_pressure;Samples;Min_cycle;Max_cycle;Signal;HPM_P1;HPM_P2
2022/07/29 00:00:14;;;;;;;925.47;862.75;;;;;;;20.80;41.12;101479.63;683277;28;46288;-65
2022/07/29 00:00:35;;;;;;;931.35;868.47;;;;;;;20.79;41.15;101481.56;683333;28;46312;-65
2022/07/29 00:00:57;;;;;;;960.92;896.85;;;;;;;20.77;41.17;101482.84;683415;28;46133;-65
2022/07/29 00:01:18;;;;;;;945.78;882.28;;;;;;;20.79;41.07;101476.06;684319;28;23413;-66
2022/07/29 00:01:40;;;;;;;934.90;871.80;;;;;;;20.80;41.17;101483.25;683297;28;23451;-65
2022/07/29 00:02:02;;;;;;;935.40;872.30;;;;;;;20.76;41.23;101483.91;682565;28;70533;-66
2022/07/29 00:02:24;;;;;;;944.13;880.83;;;;;;;20.71;41.12;101479.09;683647;28;44645;-66
2022/07/29 00:02:46;;;;;;;941.22;877.95;;;;;;;20.73;41.24;101485.19;683275;28;45202;-67
2022/07/29 00:03:08;;;;;;;942.17;878.88;;;;;;;20.70;41.49;101486.50;683520;28;46275;-66
2022/07/29 00:03:29;;;;;;;949.10;885.45;;;;;;;20.70;41.17;101485.66;683139;28;44169;-66
2022/07/29 00:03:52;;;;;;;945.60;882.10;;;;;;;20.69;41.44;101487.56;684262;28;15102;-66
2022/07/29 00:04:14;;;;;;;926.30;863.60;;;;;;;20.71;41.35;101492.84;682389;28;70288;-66
2022/07/29 00:04:36;;;;;;;924.05;861.38;;;;;;;20.69;41.42;101487.56;683239;28;44352;-67
2022/07/29 00:04:57;;;;;;;964.75;900.47;;;;;;;20.68;41.54;101491.38;683187;28;46280;-66
2022/07/29 00:05:18;;;;;;;973.35;908.80;;;;;;;20.68;41.50;101491.38;684088;28;22389;-65
2022/07/29 00:05:40;;;;;;;933.53;870.63;;;;;;;20.68;41.38;101487.78;684231;28;22339;-66
2022/07/29 00:06:02;;;;;;;934.40;871.33;;;;;;;20.68;41.53;101485.88;683275;28;46319;-66
2022/07/29 00:06:23;;;;;;;929.42;866.63;;;;;;;20.67;41.67;101486.09;682697;28;46690;-66
2022/07/29 00:06:44;;;;;;;935.65;872.65;;;;;;;20.66;41.68;101489.94;683885;28;23661;-65
2022/07/29 00:07:06;;;;;;;944.70;881.25;;;;;;;20.68;41.54;101487.78;684230;28;23315;-65
2022/07/29 00:07:28;;;;;;;949.97;886.50;;;;;;;20.67;41.54;101488.84;683273;28;47189;-65
2022/07/29 00:07:49;;;;;;;965.90;901.67;;;;;;;20.67;41.52;101483.34;682984;28;44383;-65
2022/07/29 00:08:11;;;;;;;965.92;901.58;;;;;;;20.66;41.51;101487.19;685193;28;1380;-65
2022/07/29 00:08:32;;;;;;;950.10;886.50;;;;;;;20.64;41.60;101484.69;683218;28;44559;-66
2022/07/29 00:08:55;;;;;;;947.17;883.65;;;;;;;20.64;41.49;101487.41;684250;28;18414;-65
2022/07/29 00:09:16;;;;;;;937.80;874.63;;;;;;;20.61;41.75;101481.47;682693;28;69527;-65
2022/07/29 00:09:37;;;;;;;955.28;891.38;;;;;;;20.62;41.50;101486.75;684030;28;22355;-65
2022/07/29 00:09:58;;;;;;;995.35;929.67;;;;;;;20.61;41.73;101487.84;683993;28;22476;-65
2022/07/29 00:10:21;;;;;;;987.40;922.03;;;;;;;20.55;41.87;101483.25;684321;28;23475;-65
2022/07/29 00:10:42;;;;;;;932.50;869.33;;;;;;;20.58;41.86;101488.28;682413;28;69646;-65
2022/07/29 00:11:04;;;;;;;929.38;866.50;;;;;;;20.58;41.76;101487.44;684793;28;21552;-65
2022/07/29 00:11:25;;;;;;;954.88;891.22;;;;;;;20.57;41.80;101477.53;682421;28;46400;-67
2022/07/29 00:11:48;;;;;;;941.38;878.05;;;;;;;20.54;41.79;101478.81;683652;28;22402;-66
2022/07/29 00:12:09;;;;;;;929.55;866.75;;;;;;;20.57;41.62;101480.28;683325;28;44549;-67
2022/07/29 00:12:30;;;;;;;933.33;870.40;;;;;;;20.56;41.80;101478.59;683457;28;45301;-67
2022/07/29 00:12:52;;;;;;;924.40;861.75;;;;;;;20.54;41.75;101484.31;684109;28;22254;-68
2022/07/29 00:13:14;;;;;;;942.95;879.53;;;;;;;20.52;41.91;101476.28;684431;28;21518;-66
2022/07/29 00:13:35;;;;;;;950.58;886.88;;;;;;;20.49;41.93;101479.50;683102;28;46494;-68
2022/07/29 00:13:56;;;;;;;934.90;871.88;;;;;;;20.53;41.96;101482.63;683112;28;44363;-67
2022/07/29 00:14:17;;;;;;;942.97;879.65;;;;;;;20.46;41.92;101477.19;684322;28;22392;-66
2022/07/29 00:14:39;;;;;;;921.97;859.35;;;;;;;20.53;41.86;101482.63;685049;28;23429;-63
2022/07/29 00:15:01;;;;;;;935.63;872.42;;;;;;;20.55;41.95;101482.38;683006;28;45294;-64
2022/07/29 00:15:22;;;;;;;956.33;892.25;;;;;;;20.53;41.73;101480.72;684157;28;23562;-64
2022/07/29 00:15:44;;;;;;;962.72;898.60;;;;;;;20.55;41.97;101479.66;684155;28;21552;-65
2022/07/29 00:16:05;;;;;;;936.40;873.30;;;;;;;20.53;41.96;101477.13;682568;28;67314;-65
2022/07/29 00:16:26;;;;;;;938.08;874.95;;;;;;;20.52;41.94;101475.47;683684;28;22399;-66
2022/07/29 00:16:47;;;;;;;947.33;883.85;;;;;;;20.50;42.19;101477.56;684026;28;22409;-65
2022/07/29 00:17:09;;;;;;;938.03;874.92;;;;;;;20.51;42.46;101484.75;683922;28;23469;-65
2022/07/29 00:17:31;;;;;;;947.08;883.45;;;;;;;20.52;41.94;101480.94;684192;28;22248;-65
2022/07/29 00:17:53;;;;;;;922.00;859.28;;;;;;;20.50;42.30;101481.19;682251;28;68126;-66
2022/07/29 00:18:14;;;;;;;924.88;862.13;;;;;;;20.51;42.32;101479.25;683563;28;44164;-66
2022/07/29 00:18:35;;;;;;;946.53;883.03;;;;;;;20.51;42.17;101473.78;683960;28;22384;-66
2022/07/29 00:18:57;;;;;;;946.92;883.33;;;;;;;20.43;42.18;101469.41;683819;28;23514;-66
2022/07/29 00:19:19;;;;;;;928.97;866.15;;;;;;;20.51;42.37;101476.53;683407;28;45268;-66
2022/07/29 00:19:40;;;;;;;925.28;862.45;;;;;;;20.53;42.02;101482.63;682942;28;45232;-66
2022/07/29 00:20:02;;;;;;;953.67;889.72;;;;;;;20.52;42.05;101480.94;683585;28;26381;-66
2022/07/29 00:20:24;;;;;;;948.30;884.70;;;;;;;20.51;42.06;101469.13;683568;28;36958;-66
2022/07/29 00:20:45;;;;;;;936.08;872.75;;;;;;;20.50;42.20;101475.69;683832;28;23587;-66
2022/07/29 00:21:07;;;;;;;959.67;895.45;;;;;;;20.49;42.23;101481.41;684493;28;9652;-66
2022/07/29 00:21:28;;;;;;;940.63;877.30;;;;;;;20.46;42.28;101473.63;672646;28;43735;-66
2022/07/29 00:21:49;;;;;;;953.25;889.55;;;;;;;20.45;42.11;101474.69;683381;28;22451;-66
2022/07/29 00:22:11;;;;;;;941.00;877.75;;;;;;;20.45;42.20;101475.50;683395;28;1911;-67
2022/07/29 00:22:33;;;;;;;934.35;871.33;;;;;;;20.44;42.22;101476.59;683889;28;22232;-66
2022/07/29 00:22:54;;;;;;;947.05;883.40;;;;;;;20.44;42.34;101473.84;682132;28;69406;-66
2022/07/29 00:23:19;;;;;;;991.53;925.88;;;;;;;20.40;42.37;101475.34;684387;28;14027;-66
2022/07/29 00:23:40;;;;;;;1000.65;934.65;;;;;;;20.44;42.28;101464.75;683861;28;23487;-66
2022/07/29 00:24:01;;;;;;;995.10;929.30;;;;;;;20.40;42.35;101471.78;684800;28;1638;-66
2022/07/29 00:24:23;;;;;;;995.70;929.88;;;;;;;20.38;42.51;101472.00;684247;28;22423;-66
2022/07/29 00:24:45;;;;;;;994.20;928.45;;;;;;;20.40;42.60;101469.03;682327;28;69435;-66
2022/07/29 00:25:07;;;;;;;985.53;920.15;;;;;;;20.39;42.37;101467.34;683969;28;22235;-66
2022/07/29 00:25:28;;;;;;;967.58;902.95;;;;;;;20.37;42.48;101470.31;683544;28;45209;-67
2022/07/29 00:25:50;;;;;;;978.50;913.58;;;;;;;20.36;42.51;101474.13;684105;28;21535;-66
2022/07/29 00:26:11;;;;;;;977.20;912.17;;;;;;;20.37;42.37;101470.31;683241;28;43613;-66
2022/07/29 00:26:32;;;;;;;977.55;912.60;;;;;;;20.37;42.60;101464.00;683491;28;21532;-66
2022/07/29 00:26:54;;;;;;;986.28;920.90;;;;;;;20.37;42.39;101466.75;682952;28;46294;-67
2022/07/29 00:27:15;;;;;;;994.60;928.85;;;;;;;20.35;42.50;101469.72;682926;28;23630;-66
2022/07/29 00:27:37;;;;;;;992.15;926.55;;;;;;;20.35;42.36;101467.78;683173;28;23405;-66
2022/07/29 00:27:58;;;;;;;992.63;927.10;;;;;;;20.32;42.58;101465.50;682272;28;46359;-66
2022/07/29 00:28:20;;;;;;;983.15;917.90;;;;;;;20.31;42.62;101465.72;684532;28;38484;-67
2022/07/29 00:28:41;;;;;;;969.03;904.40;;;;;;;20.32;42.61;101464.66;685419;28;21535;-66
2022/07/29 00:29:05;;;;;;;955.60;891.50;;;;;;;20.30;42.61;101464.06;685665;28;23399;-66
2022/07/29 00:29:26;;;;;;;952.00;888.15;;;;;;;20.25;42.70;101462.00;682085;28;92383;-66
2022/07/29 00:29:47;;;;;;;945.28;881.60;;;;;;;20.30;42.49;101469.53;684279;28;22201;-66
2022/07/29 00:30:09;;;;;;;948.72;884.92;;;;;;;20.29;42.78;101473.34;684179;28;22396;-67
2022/07/29 00:30:31;;;;;;;951.58;887.67;;;;;;;20.26;42.75;101477.38;683791;28;46091;-66
2022/07/29 00:30:52;;;;;;;954.10;890.13;;;;;;;20.24;42.57;101468.53;683732;28;44399;-66
2022/07/29 00:31:14;;;;;;;952.60;888.70;;;;;;;20.22;42.59;101467.91;684434;28;22402;-66
2022/07/29 00:31:36;;;;;;;957.95;893.78;;;;;;;20.22;42.79;101473.41;682924;28;45247;-66
2022/07/29 00:31:58;;;;;;;969.35;904.72;;;;;;;20.19;42.93;101473.84;683640;28;44384;-65
2022/07/29 00:32:19;;;;;;;968.25;903.78;;;;;;;20.18;42.83;101474.91;686101;28;46290;-65
2022/07/29 00:32:41;;;;;;;960.72;896.47;;;;;;;20.18;43.01;101469.41;686902;28;22408;-65
2022/07/29 00:33:03;;;;;;;972.85;908.20;;;;;;;20.18;42.89;101480.38;686408;28;46448;-65
2022/07/29 00:33:24;;;;;;;968.30;903.70;;;;;;;20.19;42.78;101473.00;686177;28;44394;-65
2022/07/29 00:33:46;;;;;;;952.47;888.47;;;;;;;20.18;42.78;101472.16;686897;28;22435;-65
2022/07/29 00:35:43;;;;;;;955.03;891.05;;;;;;;20.15;42.93;101478.91;685849;28;46312;-65
2022/07/29 00:35:43;;;;;;;959.60;895.50;;;;;;;20.07;43.14;101472.88;681014;28;130027;-65
2022/07/29 00:36:04;;;;;;;958.58;894.42;;;;;;;20.09;42.99;101479.81;680631;28;137414;-65
2022/07/29 00:36:26;;;;;;;950.75;886.90;;;;;;;20.10;43.16;101477.94;674594;28;21536;-65
2022/07/29 00:36:47;;;;;;;958.55;894.42;;;;;;;20.05;43.25;101469.53;686340;28;23524;-64
2022/07/29 00:37:08;;;;;;;954.72;890.63;;;;;;;20.07;43.21;101475.63;686402;28;21021;-65
2022/07/29 00:37:30;;;;;;;952.30;888.40;;;;;;;20.07;43.16;101475.63;685929;28;44354;-65
2022/07/29 00:37:54;;;;;;;961.05;896.92;;;;;;;20.02;43.52;101479.03;686038;28;44377;-65
2022/07/29 00:38:17;;;;;;;952.58;888.67;;;;;;;19.97;43.51;101468.75;684698;28;92287;-65
2022/07/29 00:38:38;;;;;;;964.15;899.85;;;;;;;19.97;43.43;101476.97;685877;28;46641;-65
2022/07/29 00:39:00;;;;;;;969.65;905.05;;;;;;;19.94;43.37;101479.31;685904;28;46304;-65
2022/07/29 00:39:22;;;;;;;980.15;915.15;;;;;;;19.97;43.55;101482.44;685120;28;46124;-65
2022/07/29 00:39:43;;;;;;;973.15;908.40;;;;;;;19.96;43.61;101479.94;684636;28;21545;-65
2022/07/29 00:40:10;;;;;;;971.42;906.83;;;;;;;19.96;43.57;101479.94;684104;28;46296;-67
2022/07/29 00:40:32;;;;;;;962.13;897.95;;;;;;;19.94;43.66;101479.31;680715;28;138077;-65
2022/07/29 00:40:53;;;;;;;955.00;890.90;;;;;;;19.92;43.49;101482.28;683366;28;46276;-65
2022/07/29 00:41:15;;;;;;;973.03;908.28;;;;;;;19.91;43.57;101472.38;684376;28;22314;-65
2022/07/29 00:41:36;;;;;;;988.22;922.75;;;;;;;19.93;43.73;101474.88;683497;28;23370;-65
2022/07/29 00:41:58;;;;;;;980.72;915.70;;;;;;;19.92;43.67;101485.03;686086;28;22396;-65
2022/07/29 00:42:19;;;;;;;946.80;883.03;;;;;;;19.91;43.57;101480.59;685652;28;69412;-65
2022/07/29 00:42:44;;;;;;;951.78;887.80;;;;;;;19.92;43.49;101482.28;687451;28;1540;-64
2022/07/29 00:43:08;;;;;;;952.05;888.15;;;;;;;19.87;43.60;101467.53;685192;28;90709;-65
2022/07/29 00:43:30;;;;;;;981.00;916.08;;;;;;;19.92;43.76;101470.44;683421;28;113566;-66
2022/07/29 00:43:51;;;;;;;982.80;917.90;;;;;;;19.88;43.66;101470.06;684707;28;44365;-66
2022/07/29 00:44:13;;;;;;;977.35;912.65;;;;;;;19.93;43.53;101480.38;684641;28;23471;-66
2022/07/29 00:44:37;;;;;;;978.80;914.10;;;;;;;19.92;43.61;101479.53;684640;28;23111;-66
2022/07/29 00:44:58;;;;;;;983.85;918.95;;;;;;;19.92;43.75;101474.06;682115;28;92647;-64
2022/07/29 00:45:21;;;;;;;986.38;921.38;;;;;;;19.89;43.90;101477.25;683720;28;46285;-65
2022/07/29 00:45:43;;;;;;;966.03;901.72;;;;;;;19.90;43.72;101478.91;682892;28;69456;-66
2022/07/29 00:46:04;;;;;;;974.90;910.28;;;;;;;19.89;43.74;101482.72;685356;28;1402;-66
2022/07/29 00:46:27;;;;;;;976.33;911.63;;;;;;;19.89;43.75;101479.97;684113;28;20862;-65
2022/07/29 00:46:48;;;;;;;974.58;909.95;;;;;;;19.90;43.94;101478.91;683508;28;46487;-66
2022/07/29 00:47:10;;;;;;;977.40;912.67;;;;;;;19.90;43.87;101469.84;684346;28;22411;-66
2022/07/29 00:47:31;;;;;;;976.97;912.28;;;;;;;19.90;43.97;101476.16;683032;28;67371;-66
2022/07/29 00:47:54;;;;;;;974.75;910.15;;;;;;;19.89;43.75;101479.13;684477;28;24174;-66
2022/07/29 00:48:16;;;;;;;975.25;910.55;;;;;;;19.87;43.74;101479.34;683020;28;67495;-65
2022/07/29 00:48:38;;;;;;;983.45;918.33;;;;;;;19.87;43.63;101473.84;683748;28;46366;-65
2022/07/29 00:48:59;;;;;;;978.60;913.60;;;;;;;19.89;43.89;101479.97;684427;28;23432;-65
2022/07/29 00:49:20;;;;;;;970.05;905.63;;;;;;;19.86;43.90;101477.69;683400;28;45323;-68
2022/07/29 00:49:42;;;;;;;961.38;897.20;;;;;;;19.86;43.71;101476.81;684232;28;22408;-66
2022/07/29 00:50:06;;;;;;;954.45;890.50;;;;;;;19.86;44.16;101479.56;684173;28;22441;-65
2022/07/29 00:50:27;;;;;;;948.25;884.58;;;;;;;19.83;44.11;101477.25;682417;28;92109;-66
2022/07/29 00:50:49;;;;;;;940.30;876.83;;;;;;;19.83;44.13;101474.50;683596;28;46629;-66
2022/07/29 00:51:12;;;;;;;930.50;867.40;;;;;;;19.83;44.08;101472.63;684788;28;22364;-66
2022/07/29 00:51:34;;;;;;;934.75;871.35;;;;;;;19.86;43.88;101480.41;682240;28;69457;-66
2022/07/29 00:51:56;;;;;;;936.58;873.20;;;;;;;19.87;44.20;101476.59;683547;28;45261;-65
2022/07/29 00:52:17;;;;;;;934.13;870.87;;;;;;;19.88;43.81;101477.47;682891;28;69159;-65
2022/07/29 00:52:42;;;;;;;937.28;873.88;;;;;;;19.89;44.15;101479.13;684063;28;46328;-65
2022/07/29 00:53:04;;;;;;;940.60;877.20;;;;;;;19.85;44.26;101461.44;682094;28;92445;-66
2022/07/29 00:53:25;;;;;;;941.53;878.13;;;;;;;19.88;44.07;101472.81;683690;28;46244;-66
2022/07/29 00:53:50;;;;;;;937.23;873.87;;;;;;;19.91;43.91;101474.28;683563;28;46546;-65
2022/07/29 00:54:15;;;;;;;962.20;897.83;;;;;;;19.91;43.76;101471.53;683069;28;59426;-66
2022/07/29 00:54:38;;;;;;;958.00;893.80;;;;;;;19.92;43.82;101473.19;683681;28;44387;-65
2022/07/29 00:54:59;;;;;;;955.47;891.33;;;;;;;19.92;43.70;101467.72;682725;28;69379;-66
2022/07/29 00:55:20;;;;;;;967.83;903.38;;;;;;;19.92;43.97;101464.97;685737;28;23430;-64
2022/07/29 00:55:45;;;;;;;961.92;897.58;;;;;;;19.91;43.76;101463.31;681126;28;113376;-66
2022/07/29 00:56:07;;;;;;;939.60;876.08;;;;;;;19.91;43.80;101463.31;683738;28;69399;-65
2022/07/29 00:56:30;;;;;;;959.17;894.92;;;;;;;19.89;43.97;101458.06;684671;28;5407;-65
2022/07/29 00:56:54;;;;;;;958.17;893.90;;;;;;;19.89;43.88;101458.06;683138;28;45370;-65
2022/07/29 00:57:15;;;;;;;959.20;894.92;;;;;;;19.90;44.00;101465.19;681183;28;93242;-65
2022/07/29 00:57:37;;;;;;;966.17;901.85;;;;;;;19.90;44.16;101458.88;684536;28;23449;-65
2022/07/29 00:58:00;;;;;;;960.42;896.33;;;;;;;19.90;43.95;101459.72;683366;28;46036;-65
2022/07/29 00:58:21;;;;;;;954.85;890.88;;;;;;;19.91;44.03;101463.31;683042;28;67491;-66
2022/07/29 00:58:43;;;;;;;949.97;886.22;;;;;;;19.90;43.99;101453.41;685049;28;22406;-66
2022/07/29 00:59:04;;;;;;;966.67;902.25;;;;;;;19.90;43.78;101454.22;683754;28;44374;-66
2022/07/29 00:59:25;;;;;;;977.78;912.95;;;;;;;19.91;44.09;101449.59;684700;28;23541;-66
2022/07/29 00:59:47;;;;;;;978.25;913.45;;;;;;;19.89;44.08;101451.69;684536;28;22403;-66
2022/07/29 01:00:10;;;;;;;976.20;911.47;;;;;;;19.89;43.84;101448.97;683374;28;45238;-66
2022/07/29 01:00:32;;;;;;;982.35;917.45;;;;;;;19.89;44.08;101460.78;682301;28;93087;-66
2022/07/29 01:00:53;;;;;;;979.67;914.85;;;;;;;19.87;44.13;101453.84;685264;28;1637;-66
2022/07/29 01:01:15;;;;;;;979.00;914.20;;;;;;;19.87;44.13;101459.31;684047;28;23434;-66
2022/07/29 01:01:36;;;;;;;967.92;903.53;;;;;;;19.84;44.27;101455.09;683221;28;46681;-65
2022/07/29 01:01:57;;;;;;;972.85;908.30;;;;;;;19.84;44.10;101449.63;684583;28;20892;-66
2022/07/29 01:02:19;;;;;;;968.75;904.35;;;;;;;19.83;44.05;101452.59;685400;28;22486;-66
2022/07/29 01:02:41;;;;;;;972.50;908.00;;;;;;;19.83;44.24;101455.31;683961;28;40512;-66
2022/07/29 01:03:03;;;;;;;976.88;912.15;;;;;;;19.83;43.95;101452.59;683877;28;46386;-66
2022/07/29 01:03:25;;;;;;;970.95;906.47;;;;;;;19.79;44.17;101461.25;685136;28;1530;-65
2022/07/29 01:03:46;;;;;;;965.85;901.45;;;;;;;19.77;44.43;101457.06;683572;28;46259;-66
2022/07/29 01:04:08;;;;;;;964.22;899.80;;;;;;;19.78;44.40;101456.00;684358;28;22458;-66
2022/07/29 01:04:38;;;;;;;971.22;906.60;;;;;;;19.79;44.26;101458.50;683270;28;60485;-66
2022/07/29 01:04:59;;;;;;;973.35;908.67;;;;;;;19.77;44.13;101454.34;683254;28;45286;-66
2022/07/29 01:05:22;;;;;;;964.35;900.08;;;;;;;19.77;44.35;101455.16;684559;28;21545;-66
2022/07/29 01:05:45;;;;;;;958.72;894.67;;;;;;;19.75;44.59;101453.69;682727;28;69765;-64
2022/07/29 01:06:06;;;;;;;972.35;907.78;;;;;;;19.75;44.41;101454.53;682970;28;69470;-64
2022/07/29 01:06:28;;;;;;;978.72;913.85;;;;;;;19.74;44.30;101447.34;659665;28;22652;-65
2022/07/29 01:06:49;;;;;;;976.70;911.80;;;;;;;19.67;44.71;101448.44;686527;28;21391;-65
2022/07/29 01:07:10;;;;;;;975.08;910.15;;;;;;;19.67;44.52;101454.78;685743;28;45030;-66
2022/07/29 01:07:33;;;;;;;969.95;905.35;;;;;;;19.67;44.71;101449.31;687019;28;22229;-65
2022/07/29 01:07:55;;;;;;;966.40;902.00;;;;;;;19.63;44.45;101448.88;685225;28;69399;-66
2022/07/29 01:08:16;;;;;;;963.25;898.97;;;;;;;19.68;44.64;101458.34;687135;28;22403;-65
2022/07/29 01:08:39;;;;;;;950.88;887.08;;;;;;;19.64;44.59;101455.22;684752;28;46327;-66
2022/07/29 01:09:01;;;;;;;947.03;883.28;;;;;;;19.63;44.60;101453.53;682908;28;67502;-65
2022/07/29 01:09:23;;;;;;;942.47;878.88;;;;;;;19.63;44.73;101451.63;683799;28;44390;-65
2022/07/29 01:09:45;;;;;;;938.88;875.33;;;;;;;19.62;44.95;101447.22;683759;28;46305;-64
2022/07/29 01:10:09;;;;;;;942.78;879.10;;;;;;;19.61;44.83;101445.53;683262;28;45240;-64
2022/07/29 01:10:30;;;;;;;946.85;883.13;;;;;;;19.61;45.01;101451.03;682779;28;69425;-65
2022/07/29 01:10:52;;;;;;;946.25;882.45;;;;;;;19.61;44.91;101451.03;683364;28;44163;-64
2022/07/29 01:11:14;;;;;;;949.05;885.17;;;;;;;19.63;44.87;101448.06;683720;28;46298;-65
2022/07/29 01:11:36;;;;;;;957.50;893.30;;;;;;;19.61;44.90;101450.19;683848;28;23414;-65
2022/07/29 01:12:04;;;;;;;951.00;887.10;;;;;;;19.61;44.96;101452.94;680916;28;115216;-65
2022/07/29 01:12:27;;;;;;;958.47;894.22;;;;;;;19.60;45.09;101454.81;680540;28;138100;-65
2022/07/29 01:12:50;;;;;;;945.17;881.42;;;;;;;19.60;44.96;101453.97;683578;28;67476;-65
2022/07/29 01:13:15;;;;;;;960.20;896.00;;;;;;;19.61;45.08;101450.19;684025;28;36509;-64
2022/07/29 01:13:37;;;;;;;969.88;905.30;;;;;;;19.59;45.10;101455.88;682680;28;67460;-65
2022/07/29 01:13:58;;;;;;;974.10;909.40;;;;;;;19.52;44.86;101441.38;684430;28;22152;-65
2022/07/29 01:14:23;;;;;;;986.63;921.33;;;;;;;19.60;44.93;101459.47;683946;28;38096;-66
2022/07/29 01:14:45;;;;;;;975.20;910.50;;;;;;;19.57;44.93;101444.28;683297;28;45321;-64
2022/07/29 01:15:09;;;;;;;963.50;899.17;;;;;;;19.61;44.95;101455.66;683907;28;46392;-65
2022/07/29 01:15:30;;;;;;;977.55;912.78;;;;;;;19.59;45.04;101449.53;682501;28;69311;-65
2022/07/29 01:15:57;;;;;;;973.53;908.78;;;;;;;19.58;44.74;101447.88;680474;29;42989;-65
2022/07/29 01:16:24;;;;;;;974.58;909.85;;;;;;;19.57;45.04;101449.78;677595;29;136546;-64
2022/07/29 01:16:52;;;;;;;974.55;909.67;;;;;;;19.57;44.75;101443.47;675756;29;158337;-65
2022/07/29 01:17:18;;;;;;;977.10;912.17;;;;;;;19.55;44.97;101445.59;680042;28;136769;-65
2022/07/29 01:17:44;;;;;;;978.70;913.65;;;;;;;19.58;44.75;101450.63;680297;28;137916;-66
2022/07/29 01:18:10;;;;;;;952.05;888.17;;;;;;;19.59;45.09;101446.81;680701;28;131486;-66
2022/07/29 01:18:35;;;;;;;972.53;907.92;;;;;;;19.56;44.92;101450.84;680273;28;138306;-66
2022/07/29 01:19:01;;;;;;;975.03;910.22;;;;;;;19.58;44.68;101456.09;681455;28;113562;-66
2022/07/29 01:19:38;;;;;;;971.70;907.10;;;;;;;19.56;45.00;101444.50;680514;28;137983;-66
2022/07/29 01:20:06;;;;;;;977.42;912.60;;;;;;;19.55;45.25;101451.91;680326;28;138415;-66
2022/07/29 01:20:35;;;;;;;971.20;906.60;;;;;;;19.47;45.03;101437.59;681763;28;96684;-66
2022/07/29 01:21:16;;;;;;;968.83;904.22;;;;;;;19.51;44.91;101444.34;680225;28;137532;-66
2022/07/29 01:21:50;;;;;;;969.83;905.08;;;;;;;19.50;44.99;101431.69;679155;28;137422;-66
2022/07/29 01:22:25;;;;;;;974.08;909.38;;;;;;;19.50;45.05;101440.75;681205;28;110839;-66
2022/07/29 01:23:21;;;;;;;968.72;904.17;;;;;;;19.49;45.41;101446.47;680112;28;136834;-66
2022/07/29 01:23:57;;;;;;;977.53;912.70;;;;;;;19.43;45.30;101439.94;679960;28;137312;-66
2022/07/29 01:24:36;;;;;;;976.22;911.33;;;;;;;19.40;45.39;101437.66;680450;28;137209;-66
2022/07/29 01:25:10;;;;;;;976.67;911.88;;;;;;;19.38;45.50;101437.03;679453;28;160341;-66
2022/07/29 01:25:48;;;;;;;967.78;903.38;;;;;;;19.35;45.64;101432.81;681160;28;115661;-66
2022/07/29 01:26:40;;;;;;;956.13;892.13;;;;;;;19.38;45.40;101435.13;679776;28;160854;-64
2022/07/29 01:27:10;;;;;;;944.60;880.72;;;;;;;19.34;45.83;101431.16;675685;28;157813;-66
2022/07/29 01:27:44;;;;;;;939.83;876.35;;;;;;;19.30;45.96;101429.91;680427;28;137416;-65
2022/07/29 01:28:21;;;;;;;938.78;875.28;;;;;;;19.30;45.84;101437.28;681223;28;137562;-65
2022/07/29 01:28:55;;;;;;;944.08;880.40;;;;;;;19.25;45.75;101429.72;680080;28;138639;-65
2022/07/29 01:29:23;;;;;;;940.85;877.33;;;;;;;19.26;46.04;101439.59;680370;28;137717;-65
2022/07/29 01:29:50;;;;;;;950.72;886.78;;;;;;;19.29;45.82;101435.59;681469;28;111425;-65
2022/07/29 01:30:12;;;;;;;975.63;910.80;;;;;;;19.25;45.95;101422.34;680259;28;137496;-66
2022/07/29 01:30:35;;;;;;;966.95;902.50;;;;;;;19.27;46.12;101431.19;683195;28;45287;-65
2022/07/29 01:30:56;;;;;;;968.47;904.03;;;;;;;19.28;45.92;101429.28;683379;28;46368;-65
2022/07/29 01:31:21;;;;;;;962.50;898.25;;;;;;;19.27;45.76;101428.44;684851;28;46297;-66
2022/07/29 01:31:46;;;;;;;979.65;914.65;;;;;;;19.28;45.97;101429.28;679457;28;134736;-65
2022/07/29 01:32:10;;;;;;;968.08;903.53;;;;;;;19.29;46.06;101430.97;680627;28;113413;-65
2022/07/29 01:32:35;;;;;;;977.97;913.17;;;;;;;19.30;45.94;101427.16;681551;28;91646;-65
2022/07/29 01:33:01;;;;;;;977.90;913.03;;;;;;;19.31;45.77;101423.38;681032;28;115791;-65
2022/07/29 01:34:09;;;;;;;982.22;917.17;;;;;;;19.35;45.88;101418.31;680142;28;137707;-65
2022/07/29 01:34:35;;;;;;;971.63;906.90;;;;;;;19.35;45.71;101412.81;681432;28;115085;-65
2022/07/29 01:35:02;;;;;;;977.90;913.08;;;;;;;19.35;45.89;101418.31;680145;28;137404;-66
2022/07/29 01:35:25;;;;;;;981.65;916.53;;;;;;;19.35;45.78;101413.66;682873;28;59220;-66
2022/07/29 01:35:47;;;;;;;992.70;927.13;;;;;;;19.37;45.92;101416.16;682475;28;69287;-65
2022/07/29 01:36:11;;;;;;;980.63;915.60;;;;;;;19.37;45.88;101413.44;684753;28;44390;-64
2022/07/29 01:36:36;;;;;;;969.65;905.15;;;;;;;19.34;45.87;101406.50;680948;28;92039;-65
2022/07/29 01:37:05;;;;;;;971.50;906.72;;;;;;;19.33;46.04;101415.78;680434;28;113941;-64
2022/07/29 01:37:29;;;;;;;970.55;905.95;;;;;;;19.30;45.77;101404.44;680123;28;138525;-65
2022/07/29 01:37:53;;;;;;;975.70;910.95;;;;;;;19.32;45.84;101408.63;681787;28;92582;-65
2022/07/29 01:38:19;;;;;;;974.78;910.10;;;;;;;19.33;45.87;101415.78;681428;28;90306;-65
2022/07/29 01:38:44;;;;;;;975.17;910.47;;;;;;;19.32;46.13;101411.34;681264;28;137279;-66
2022/07/29 01:39:09;;;;;;;977.17;912.35;;;;;;;19.30;46.11;101407.16;681974;28;92357;-66
2022/07/29 01:39:32;;;;;;;967.25;902.78;;;;;;;19.29;45.96;101409.03;679626;28;138114;-65
2022/07/29 01:39:56;;;;;;;974.03;909.30;;;;;;;19.32;45.88;101408.63;682297;28;69422;-65
2022/07/29 01:40:20;;;;;;;968.85;904.42;;;;;;;19.31;45.85;101406.94;680994;28;90718;-66
2022/07/29 01:40:45;;;;;;;971.72;907.03;;;;;;;19.33;45.98;101406.72;681125;28;94919;-66
2022/07/29 01:41:08;;;;;;;971.22;906.42;;;;;;;19.33;45.94;101404.00;681205;28;115176;-65
2022/07/29 01:41:34;;;;;;;967.88;903.33;;;;;;;19.31;46.25;101401.47;681687;28;69435;-65
2022/07/29 01:41:59;;;;;;;962.53;898.25;;;;;;;19.31;46.04;101401.47;680794;28;115052;-65
2022/07/29 01:42:27;;;;;;;963.40;899.20;;;;;;;19.33;46.18;101404.00;681484;28;138093;-65
2022/07/29 01:42:51;;;;;;;963.83;899.53;;;;;;;19.32;46.01;101399.56;680116;28;137969;-65
2022/07/29 01:43:16;;;;;;;964.83;900.53;;;;;;;19.31;46.21;101397.88;681960;28;92272;-65
2022/07/29 01:43:42;;;;;;;968.03;903.63;;;;;;;19.28;46.19;101390.97;681846;28;90588;-65
2022/07/29 01:44:11;;;;;;;951.70;887.78;;;;;;;19.30;46.21;101397.03;680521;28;138788;-66
2022/07/29 01:44:42;;;;;;;984.33;919.25;;;;;;;19.28;46.26;101396.44;680840;28;137727;-65
2022/07/29 01:45:10;;;;;;;959.38;895.22;;;;;;;19.27;46.39;101390.09;679827;28;137207;-66
2022/07/29 01:45:38;;;;;;;962.25;897.97;;;;;;;19.26;46.29;101382.09;680316;28;137673;-66
2022/07/29 01:46:02;;;;;;;970.30;905.80;;;;;;;19.29;46.12;101389.88;680245;28;136322;-66
2022/07/29 01:46:29;;;;;;;968.57;904.17;;;;;;;19.29;46.10;101389.88;680558;28;115173;-66
2022/07/29 01:46:55;;;;;;;965.88;901.38;;;;;;;19.25;46.41;101394.13;680038;28;138313;-66
2022/07/29 01:47:20;;;;;;;962.63;898.20;;;;;;;19.25;46.22;101386.75;681182;28;138108;-65